Pasinler, Turkey
Current Conditions -  °F | °C
As of 7:20 PM on Friday 24 Oct 2014 (Local Time) from LTCE Reporting Station
Scattered Clouds Scattered Clouds  
Wind Chill: 50°   Ceiling: Unl
Heat Index: 50°   Visibility: 6mi
Dew Point: 36°   Wind: 6mph
Humidity: 58%   Direction: 200°SSW
Pressure: 30.15"   Gusts: NA
Location:  39.99°N, 41.69°E
Report Text: LTCE 241620Z 20005KT 160V250 9999 SCT030 10/02 Q1021 NOSIG
Loading
Personal Weather Stations






























Interactive Weather Map New forecast layout! Learn more

10-Day Weather Forecast

Advertisements
Track Severe Weather on mobile